Time;durP1;ratioP1;P1;durP2;ratioP2;P2;SDS_P1;SDS_P2;PMS_P1;PMS_P2;Temp;Humidity;BMP_temperature;BMP_pressure;BME280_temperature;BME280_humidity;BME280_pressure;Samples;Min_cycle;Max_cycle;Signal;HPM_P1;HPM_P2
2023/01/02 00:21:43;;;;;;;8.30;3.85;;;;;;;10.72;100.00;100901.38;5227884;23;20468;-96
2023/01/02 00:25:17;;;;;;;12.05;3.97;;;;;;;10.71;100.00;100910.91;4916613;29;20061;-96
2023/01/02 00:27:55;;;;;;;6.45;3.60;;;;;;;10.69;100.00;100904.03;4913388;29;20068;-96
2023/01/02 00:30:25;;;;;;;3.58;2.90;;;;;;;10.66;100.00;100887.63;4916003;29;20131;-96
2023/01/02 00:33:08;;;;;;;5.50;3.03;;;;;;;10.68;100.00;100886.75;4927634;23;20013;-96
2023/01/02 00:35:51;;;;;;;7.28;3.75;;;;;;;10.69;100.00;100883.25;5293654;23;20124;-96
2023/01/02 00:38:20;;;;;;;7.05;3.40;;;;;;;10.69;100.00;100881.50;4853269;29;20056;-96
2023/01/02 00:40:54;;;;;;;5.97;3.25;;;;;;;10.74;100.00;100884.91;4913961;29;20075;-96
2023/01/02 00:43:58;;;;;;;6.22;3.00;;;;;;;10.68;100.00;100873.75;4883522;29;20040;-96
2023/01/02 00:46:36;;;;;;;8.30;3.50;;;;;;;10.69;100.00;100880.66;4842539;29;20042;-96
2023/01/02 00:51:56;;;;;;;8.68;3.70;;;;;;;10.69;100.00;100881.50;5205511;23;20409;-96
2023/01/02 00:54:30;;;;;;;8.07;3.50;;;;;;;10.69;100.00;100880.66;4933351;29;20297;-96
2023/01/02 00:57:20;;;;;;;6.03;3.50;;;;;;;10.68;100.00;100876.34;4914458;29;20063;-96
2023/01/02 01:00:05;;;;;;;8.15;3.63;;;;;;;10.74;100.00;100871.94;4878208;29;20070;-96
2023/01/02 01:05:53;;;;;;;7.80;3.60;;;;;;;10.89;100.00;100865.63;4903296;29;20047;-96
2023/01/02 01:08:21;;;;;;;6.78;3.42;;;;;;;10.83;100.00;100857.91;4927217;29;20040;-96
2023/01/02 01:10:47;;;;;;;7.05;3.20;;;;;;;10.81;100.00;100857.97;4934547;23;20131;-96
2023/01/02 01:14:00;;;;;;;5.87;3.10;;;;;;;10.87;100.00;100863.91;4927036;29;20040;-96
2023/01/02 01:16:35;;;;;;;7.03;3.33;;;;;;;10.90;100.00;100861.28;4927761;29;20068;-96
2023/01/02 01:19:17;;;;;;;8.70;3.50;;;;;;;10.97;100.00;100861.16;4929707;29;20024;-96
2023/01/02 01:22:02;;;;;;;9.32;3.83;;;;;;;11.00;100.00;100854.22;5287109;23;20068;-97
2023/01/02 01:24:30;;;;;;;8.93;3.25;;;;;;;11.03;100.00;100849.81;4956136;29;20055;-96
2023/01/02 01:29:45;;;;;;;7.60;3.70;;;;;;;11.06;100.00;100862.75;4959106;28;20022;-96
2023/01/02 01:35:29;;;;;;;7.35;3.20;;;;;;;11.11;100.00;100867.88;5058833;23;20052;-96
2023/01/02 05:26:10;;;;;;;7.05;2.80;;;;;;;11.14;100.00;100948.34;5933826;23;20037;-96
2023/01/02 05:37:57;;;;;;;5.75;2.75;;;;;;;11.24;100.00;100960.31;5149799;23;20057;-96
2023/01/02 05:41:04;;;;;;;6.00;2.70;;;;;;;11.16;100.00;100975.13;4974012;23;20031;-96
2023/01/02 05:47:27;;;;;;;7.10;2.85;;;;;;;11.17;100.00;100984.63;5183231;23;20055;-96
2023/01/02 05:49:54;;;;;;;4.55;2.60;;;;;;;11.15;100.00;100981.19;5447702;23;20037;-96
2023/01/02 05:55:18;;;;;;;4.28;2.38;;;;;;;11.17;100.00;100989.00;5207889;23;20067;-96
2023/01/02 05:58:52;;;;;;;5.82;2.67;;;;;;;11.17;100.00;100989.84;4913457;29;20052;-96
2023/01/02 06:04:57;;;;;;;4.55;2.90;;;;;;;11.18;100.00;100993.31;4979367;23;20087;-96
2023/01/02 06:08:13;;;;;;;7.05;2.70;;;;;;;11.16;100.00;100992.47;4931296;23;20080;-96
2023/01/02 06:10:50;;;;;;;4.43;2.65;;;;;;;11.15;100.00;100998.53;4919196;29;20045;-96
2023/01/02 06:22:16;;;;;;;4.43;2.30;;;;;;;11.05;100.00;101021.19;4872862;29;20045;-96
2023/01/02 06:24:54;;;;;;;3.25;2.30;;;;;;;11.03;100.00;101034.22;4824130;29;20046;-96
2023/01/02 06:32:31;;;;;;;5.80;2.92;;;;;;;10.95;100.00;101073.25;4908819;23;20112;-96
2023/01/02 06:35:08;;;;;;;4.57;2.78;;;;;;;10.83;100.00;101086.41;4903116;29;20120;-94
2023/01/02 06:37:49;;;;;;;2.60;2.22;;;;;;;10.68;100.00;101095.22;4901754;29;20020;-93
2023/01/02 06:40:17;;;;;;;1.70;1.60;;;;;;;10.54;100.00;101108.38;4902038;29;20052;-94
2023/01/02 06:42:43;;;;;;;1.90;1.60;;;;;;;10.37;100.00;101108.53;4901694;29;20069;-93
2023/01/02 06:45:17;;;;;;;1.60;1.50;;;;;;;10.26;100.00;101107.78;4901656;29;20021;-94
2023/01/02 06:47:56;;;;;;;1.15;0.95;;;;;;;10.14;100.00;101121.69;4901648;29;20031;-94
2023/01/02 06:50:22;;;;;;;1.25;1.17;;;;;;;10.06;100.00;101137.34;4901012;29;20028;-94
2023/01/02 06:59:15;;;;;;;1.48;1.02;;;;;;;9.79;100.00;101154.81;4921695;23;20048;-95
2023/01/02 07:01:41;;;;;;;1.92;0.82;;;;;;;9.72;100.00;101155.75;4927748;29;20035;-95
2023/01/02 07:04:18;;;;;;;0.70;0.70;;;;;;;9.70;100.00;101173.88;4926300;23;20056;-96
2023/01/02 07:06:53;;;;;;;0.73;0.68;;;;;;;9.63;100.00;101177.41;4920531;29;20024;-95
2023/01/02 07:10:05;;;;;;;0.50;0.50;;;;;;;9.57;100.00;101187.78;4919730;29;20438;-95
2023/01/02 07:12:52;;;;;;;0.50;0.40;;;;;;;9.48;100.00;101196.47;4883645;29;20068;-96
2023/01/02 07:15:26;;;;;;;1.02;0.93;;;;;;;9.44;100.00;101202.53;4901099;29;20463;-96
2023/01/02 07:18:04;;;;;;;0.70;0.70;;;;;;;9.39;100.00;101210.34;4901255;29;20035;-96
2023/01/02 07:20:56;;;;;;;1.20;1.10;;;;;;;9.33;100.00;101223.31;4900937;29;20529;-95
2023/01/02 07:31:08;;;;;;;1.38;1.27;;;;;;;9.21;100.00;101254.44;4912956;23;20218;-96
2023/01/02 07:34:06;;;;;;;1.17;1.00;;;;;;;9.20;100.00;101260.50;4949616;23;20048;-96
2023/01/02 07:36:57;;;;;;;1.30;1.20;;;;;;;9.17;100.00;101261.38;4934683;29;20025;-96
2023/01/02 07:42:19;;;;;;;;;;;;;;;9.11;100.00;101276.91;4929331;29;20054;-92
2023/01/02 07:44:47;;;;;;;1.40;1.30;;;;;;;9.06;100.00;101274.31;4920749;29;19948;-90
2023/01/02 07:47:18;;;;;;;1.50;1.40;;;;;;;9.07;100.00;101280.34;4919617;29;20031;-92
2023/01/02 07:49:50;;;;;;;1.90;1.70;;;;;;;9.10;100.00;101289.00;4918342;29;20036;-93
2023/01/02 07:52:33;;;;;;;2.63;1.75;;;;;;;9.05;100.00;101288.13;4918980;29;20036;-92
2023/01/02 07:55:05;;;;;;;2.55;2.08;;;;;;;9.04;100.00;101306.28;4919239;29;20058;-92
2023/01/02 07:57:40;;;;;;;2.28;2.00;;;;;;;9.01;100.00;101321.81;4919508;29;20024;-93
2023/01/02 08:00:11;;;;;;;4.35;2.40;;;;;;;8.96;100.00;101320.06;4919186;29;20047;-93
2023/01/02 08:02:43;;;;;;;2.58;2.25;;;;;;;8.90;100.00;101317.50;4919267;29;20068;-92
2023/01/02 08:05:26;;;;;;;3.17;2.53;;;;;;;8.87;100.00;101329.59;4919279;29;20098;-92
2023/01/02 08:08:16;;;;;;;4.05;2.70;;;;;;;8.89;100.00;101333.03;4918984;29;20030;-93
2023/01/02 08:10:41;;;;;;;4.03;2.75;;;;;;;8.89;100.00;101353.75;4917638;29;20032;-93
2023/01/02 08:13:40;;;;;;;4.10;3.00;;;;;;;8.90;100.00;101360.63;4919000;29;20032;-94
2023/01/02 08:16:10;;;;;;;3.20;2.50;;;;;;;8.88;100.00;101363.22;4918797;29;20083;-95
2023/01/02 08:18:42;;;;;;;3.35;2.58;;;;;;;8.91;100.00;101367.53;4919204;29;20020;-94
2023/01/02 08:21:58;;;;;;;3.40;2.50;;;;;;;8.91;100.00;101375.28;4918481;29;20032;-94
2023/01/02 08:27:33;;;;;;;5.03;3.20;;;;;;;8.91;100.00;101376.19;4917513;23;20468;-93
2023/01/02 08:37:57;;;;;;;7.75;4.35;;;;;;;8.79;100.00;101391.69;4923588;29;20060;-96
2023/01/02 08:40:39;;;;;;;7.32;4.60;;;;;;;8.74;100.00;101396.88;4926744;29;20024;-96
2023/01/02 08:43:08;;;;;;;9.85;5.38;;;;;;;8.68;100.00;101394.25;4916057;23;20522;-91
2023/01/02 08:45:33;;;;;;;7.82;4.40;;;;;;;8.69;100.00;101413.25;4901872;29;20064;-96
2023/01/02 08:47:59;;;;;;;7.50;4.40;;;;;;;8.68;100.00;101420.13;4909181;29;20040;-96
2023/01/02 08:50:31;;;;;;;5.90;3.90;;;;;;;8.65;100.00;101413.25;4921607;29;20037;-96
2023/01/02 08:52:57;;;;;;;5.03;3.55;;;;;;;8.65;100.00;101428.75;4905952;29;20040;-93
2023/01/02 08:55:37;;;;;;;6.00;3.60;;;;;;;8.62;100.00;101428.75;4902092;29;20512;-96
2023/01/02 08:58:14;;;;;;;4.32;3.13;;;;;;;8.64;100.00;101444.28;4913983;29;20112;-96
2023/01/02 09:00:57;;;;;;;5.40;3.58;;;;;;;8.59;100.00;101440.81;5295991;23;20691;-96
2023/01/02 09:06:41;;;;;;;6.80;3.67;;;;;;;8.53;100.00;101438.22;5528882;23;20063;-92
2023/01/02 09:10:01;;;;;;;4.03;3.25;;;;;;;8.49;100.00;101440.81;4917959;29;20032;-90
2023/01/02 09:12:27;;;;;;;4.35;3.15;;;;;;;8.50;100.00;101450.28;4880631;29;20391;-96
2023/01/02 09:14:53;;;;;;;4.33;3.23;;;;;;;8.49;100.00;101464.09;4879746;29;20092;-96
2023/01/02 09:17:24;;;;;;;5.53;3.30;;;;;;;8.50;100.00;101465.81;4878965;29;20029;-86
2023/01/02 09:20:08;;;;;;;4.53;2.97;;;;;;;8.52;100.00;101480.47;5067224;23;20045;-93
2023/01/02 09:22:46;;;;;;;3.50;2.63;;;;;;;8.53;100.00;101489.97;4921877;29;20039;-96
2023/01/02 09:31:52;;;;;;;5.68;3.03;;;;;;;8.47;100.00;101504.59;4894415;29;20068;-96
2023/01/02 09:36:55;;;;;;;5.97;3.20;;;;;;;8.47;100.00;101502.00;5515229;23;20588;-93
2023/01/02 09:42:52;;;;;;;4.10;2.95;;;;;;;8.49;100.00;101514.97;5159851;23;20048;-96
2023/01/02 09:48:13;;;;;;;3.63;2.88;;;;;;;8.54;100.00;101528.78;4943010;23;20524;-91
2023/01/02 09:53:19;;;;;;;3.25;2.40;;;;;;;8.57;100.00;101533.97;5207141;23;20056;-91
2023/01/02 10:01:38;;;;;;;2.83;2.38;;;;;;;8.62;100.00;101532.25;4932288;23;20064;-91
2023/01/02 10:04:45;;;;;;;2.75;2.13;;;;;;;8.62;100.00;101531.41;4917422;29;20048;-91
2023/01/02 10:07:36;;;;;;;3.33;2.38;;;;;;;8.65;100.00;101526.25;4930934;29;20082;-91
2023/01/02 10:10:51;;;;;;;5.65;2.65;;;;;;;8.65;100.00;101549.53;4933502;23;20095;-91
2023/01/02 10:13:42;;;;;;;3.63;2.40;;;;;;;8.66;100.00;101548.69;4867095;29;20044;-94
2023/01/02 10:29:06;;;;;;;3.70;2.35;;;;;;;8.71;100.00;101546.94;5479424;23;20139;-94
2023/01/02 10:38:49;;;;;;;4.05;2.47;;;;;;;8.75;100.00;101564.25;5166227;23;1213525;-94
2023/01/02 10:42:14;;;;;;;3.13;2.30;;;;;;;8.75;100.00;101564.25;4888624;29;20039;-94
2023/01/02 10:47:41;;;;;;;2.75;2.20;;;;;;;8.74;100.00;101561.63;5203762;23;20051;-95
2023/01/02 10:54:15;;;;;;;4.82;2.70;;;;;;;8.76;100.00;101567.66;4864336;23;20051;-96
2023/01/02 10:57:04;;;;;;;;;;;;;;;;;;;;;
2023/01/02 11:00:10;;;;;;;3.30;2.22;;;;;;;8.77;100.00;101561.63;4915006;29;20052;-95
2023/01/02 11:02:54;;;;;;;4.38;2.53;;;;;;;8.78;100.00;101564.22;4926399;23;20044;-95
2023/01/02 11:06:05;;;;;;;3.97;2.38;;;;;;;8.79;100.00;101578.91;4931019;23;20180;-96
2023/01/02 11:08:42;;;;;;;4.85;2.90;;;;;;;8.82;100.00;101575.47;4989419;23;20049;-96
2023/01/02 11:11:21;;;;;;;3.85;2.88;;;;;;;8.84;100.00;101581.50;4901505;29;20036;-96
2023/01/02 11:14:18;;;;;;;5.22;3.33;;;;;;;8.85;100.00;101585.81;4900894;29;20466;-96
2023/01/02 11:16:50;;;;;;;5.95;3.17;;;;;;;8.89;100.00;101584.13;4900753;29;20474;-96
2023/01/02 11:19:40;;;;;;;5.85;3.40;;;;;;;8.96;100.00;101585.88;4900104;29;20067;-95
2023/01/02 11:22:35;;;;;;;7.28;4.20;;;;;;;8.95;100.00;101595.34;4913481;23;20111;-96
2023/01/02 11:25:40;;;;;;;5.93;3.50;;;;;;;8.99;100.00;101591.06;4920326;29;20084;-96
2023/01/02 11:28:19;;;;;;;6.43;3.90;;;;;;;9.03;100.00;101592.78;4919152;29;20157;-96
2023/01/02 11:31:06;;;;;;;7.72;4.18;;;;;;;9.03;100.00;101595.38;4919724;29;20024;-96
2023/01/02 11:33:42;;;;;;;9.05;4.35;;;;;;;9.03;100.00;101602.28;4934208;23;20052;-96
2023/01/02 11:36:23;;;;;;;7.38;4.25;;;;;;;9.06;100.00;101612.69;4892876;29;20120;-96
2023/01/02 11:38:58;;;;;;;7.40;4.22;;;;;;;9.05;100.00;101609.19;4901062;29;20171;-96
2023/01/02 11:44:23;;;;;;;8.70;4.60;;;;;;;9.03;100.00;101604.88;4903344;29;20024;-96
2023/01/02 11:46:52;;;;;;;8.35;4.60;;;;;;;9.05;100.00;101604.03;4905566;29;20029;-96
2023/01/02 11:50:00;;;;;;;6.68;4.10;;;;;;;9.10;100.00;101599.75;4900112;29;20028;-95
2023/01/02 11:55:56;;;;;;;7.07;3.85;;;;;;;9.10;100.00;101606.63;4939065;23;20110;-96
2023/01/02 11:59:09;;;;;;;7.93;4.18;;;;;;;9.16;100.00;101616.13;4921228;23;20036;-96
2023/01/02 12:02:04;;;;;;;7.53;4.40;;;;;;;9.15;100.00;101619.59;4919392;29;20119;-96
2023/01/02 12:04:30;;;;;;;5.25;3.55;;;;;;;9.15;100.00;101622.16;4914262;29;20028;-96
2023/01/02 12:10:26;;;;;;;7.70;4.35;;;;;;;9.16;100.00;101623.91;4906857;29;20123;-95
2023/01/02 12:13:09;;;;;;;9.55;4.95;;;;;;;9.18;100.00;101625.63;4914147;29;20036;-96
2023/01/02 12:16:27;;;;;;;7.55;4.60;;;;;;;9.19;100.00;101626.50;4928809;23;20036;-96
2023/01/02 12:19:17;;;;;;;6.85;4.03;;;;;;;9.21;100.00;101620.47;4939552;29;20039;-96
2023/01/02 12:22:25;;;;;;;7.30;4.10;;;;;;;9.23;100.00;101629.13;4937729;29;20119;-96
2023/01/02 12:25:42;;;;;;;7.10;4.22;;;;;;;9.24;100.00;101629.97;4938271;29;20095;-96
2023/01/02 12:28:41;;;;;;;6.38;3.97;;;;;;;9.23;100.00;101634.28;4944161;29;20398;-96
2023/01/02 12:31:31;;;;;;;10.38;5.18;;;;;;;9.21;100.00;101640.34;4942982;29;20036;-96
2023/01/02 12:34:24;;;;;;;10.15;5.30;;;;;;;9.19;100.00;101631.69;4940036;29;20602;-96
2023/01/02 12:37:45;;;;;;;9.82;5.15;;;;;;;9.20;100.00;101628.25;4944064;29;20043;-96
2023/01/02 12:44:03;;;;;;;10.32;5.18;;;;;;;9.20;100.00;101636.00;4916433;23;20063;-96
2023/01/02 12:46:59;;;;;;;10.70;5.32;;;;;;;9.23;100.00;101651.56;4918483;23;20052;-95
2023/01/02 12:50:05;;;;;;;;;;;;;;;9.21;100.00;101656.72;4928714;23;20147;-95
2023/01/02 12:53:12;;;;;;;;;;;;;;;;;;;;;
2023/01/02 12:56:04;;;;;;;10.90;5.25;;;;;;;9.16;100.00;101678.28;4905647;29;20076;-96
2023/01/02 13:02:14;;;;;;;10.45;4.97;;;;;;;9.11;100.00;101675.69;5976233;23;20022;-96
2023/01/02 13:05:01;;;;;;;6.60;4.10;;;;;;;9.08;100.00;101673.97;4935372;29;20038;-96
2023/01/02 13:07:35;;;;;;;7.70;4.05;;;;;;;9.11;100.00;101675.69;5088043;23;20044;-94
2023/01/02 13:10:23;;;;;;;6.10;3.40;;;;;;;9.11;100.00;101665.34;4921395;29;20040;-96
2023/01/02 13:12:50;;;;;;;7.32;3.63;;;;;;;9.10;100.00;101664.47;4918449;29;20024;-96
2023/01/02 13:15:29;;;;;;;6.78;3.92;;;;;;;9.10;100.00;101666.19;4918639;29;20024;-96
2023/01/02 13:18:50;;;;;;;7.38;3.63;;;;;;;9.11;100.00;101657.56;4919027;29;20027;-96
2023/01/02 13:21:41;;;;;;;6.00;3.45;;;;;;;9.14;100.00;101672.22;4917497;29;20024;-95
2023/01/02 13:24:32;;;;;;;4.63;3.00;;;;;;;9.16;100.00;101673.13;4917009;29;20028;-95
2023/01/02 13:27:09;;;;;;;5.80;3.50;;;;;;;9.13;100.00;101650.66;4916989;29;20511;-96
2023/01/02 13:29:45;;;;;;;5.88;3.47;;;;;;;9.14;100.00;101656.69;5056963;23;20048;-95
2023/01/02 13:32:29;;;;;;;5.95;3.30;;;;;;;9.13;100.00;101653.25;4936537;29;20032;-95
2023/01/02 13:35:07;;;;;;;6.97;3.67;;;;;;;9.17;100.00;101654.13;4935994;29;20032;-96
2023/01/02 13:37:44;;;;;;;6.20;3.25;;;;;;;9.18;100.00;101661.88;4929460;29;20038;-95
2023/01/02 13:40:32;;;;;;;6.05;3.13;;;;;;;9.21;100.00;101650.69;4936522;29;20102;-96
2023/01/02 13:43:04;;;;;;;5.07;2.83;;;;;;;9.20;100.00;101649.81;4936417;29;20031;-94
2023/01/02 13:49:44;;;;;;;6.03;3.30;;;;;;;9.21;100.00;101681.78;4917062;29;20585;-93
2023/01/02 13:52:15;;;;;;;6.55;3.20;;;;;;;9.18;100.00;101685.19;4898768;29;20055;-96
2023/01/02 13:55:30;;;;;;;6.22;3.20;;;;;;;9.16;100.00;101686.94;4916404;29;20123;-95
2023/01/02 14:01:24;;;;;;;5.15;2.60;;;;;;;9.12;100.00;101696.41;4918080;29;20099;-96
2023/01/02 14:04:08;;;;;;;4.68;2.88;;;;;;;9.09;100.00;101693.81;4918094;29;20028;-96
2023/01/02 14:09:22;;;;;;;5.68;2.90;;;;;;;9.06;100.00;101704.16;4970332;23;20125;-96
2023/01/02 14:11:54;;;;;;;7.88;3.70;;;;;;;9.04;100.00;101705.88;4955196;29;20050;-94
2023/01/02 14:14:28;;;;;;;5.15;3.00;;;;;;;9.01;100.00;101708.44;4955565;29;20034;-95
2023/01/02 14:17:15;;;;;;;3.20;2.40;;;;;;;9.04;100.00;101707.59;4955247;29;20540;-94
2023/01/02 14:20:24;;;;;;;5.72;3.08;;;;;;;9.04;100.00;101710.19;4957364;28;20035;-96
2023/01/02 14:23:11;;;;;;;5.22;2.80;;;;;;;9.00;100.00;101703.25;4920908;29;20040;-95
2023/01/02 14:25:53;;;;;;;5.03;2.78;;;;;;;9.03;100.00;101714.50;4921322;29;20091;-95
2023/01/02 14:28:38;;;;;;;5.65;3.40;;;;;;;8.98;100.00;101705.84;4920479;29;20155;-96
2023/01/02 14:31:21;;;;;;;5.07;3.03;;;;;;;8.96;100.00;101715.31;4921103;29;20032;-96
2023/01/02 14:33:59;;;;;;;3.80;2.55;;;;;;;8.95;100.00;101722.22;4941680;29;20024;-96
2023/01/02 14:36:47;;;;;;;6.93;3.63;;;;;;;9.09;100.00;101724.00;4940470;29;20051;-95
2023/01/02 14:39:24;;;;;;;6.10;3.50;;;;;;;9.00;100.00;101721.38;4942588;29;20040;-95
2023/01/02 14:44:54;;;;;;;5.95;3.40;;;;;;;8.95;100.00;101724.81;4921654;29;20179;-95
2023/01/02 14:47:39;;;;;;;5.93;3.60;;;;;;;8.96;100.00;101731.72;4921893;29;20080;-96
2023/01/02 14:50:18;;;;;;;5.95;3.65;;;;;;;8.92;100.00;101729.09;4921776;29;20024;-96
2023/01/02 14:53:26;;;;;;;7.53;3.70;;;;;;;8.98;100.00;101736.91;4920764;29;20474;-96
2023/01/02 14:56:13;;;;;;;6.00;3.63;;;;;;;8.94;100.00;101736.03;4956578;23;20055;-96
2023/01/02 14:58:47;;;;;;;5.82;3.50;;;;;;;8.94;100.00;101740.34;4918895;29;20088;-96
2023/01/02 15:01:34;;;;;;;5.88;3.47;;;;;;;8.93;100.00;101733.41;4920438;29;20028;-95
2023/01/02 15:04:44;;;;;;;4.78;3.28;;;;;;;8.92;100.00;101744.63;4920319;29;20028;-96
2023/01/02 15:07:29;;;;;;;4.20;2.90;;;;;;;8.88;100.00;101748.94;4920480;29;20032;-96
2023/01/02 15:09:57;;;;;;;2.90;2.60;;;;;;;8.89;100.00;101762.75;4912763;23;20056;-96
2023/01/02 15:15:16;;;;;;;4.95;3.17;;;;;;;8.81;100.00;101760.97;4901878;29;20040;-96
2023/01/02 15:18:17;;;;;;;4.95;3.60;;;;;;;8.83;100.00;101765.28;4902090;29;20036;-96
2023/01/02 15:20:49;;;;;;;5.57;3.50;;;;;;;8.80;100.00;101779.94;4903087;29;20033;-96
2023/01/02 15:23:25;;;;;;;4.70;2.95;;;;;;;8.79;100.00;101790.28;4901373;29;20490;-96
2023/01/02 15:26:07;;;;;;;3.90;2.83;;;;;;;8.75;100.00;101799.75;4901213;29;20036;-95
2023/01/02 15:28:33;;;;;;;5.18;2.90;;;;;;;8.76;100.00;101814.44;4901035;29;20032;-96
2023/01/02 15:31:14;;;;;;;5.53;2.80;;;;;;;8.75;100.00;101822.16;4900056;29;20032;-96
2023/01/02 15:33:39;;;;;;;3.78;2.70;;;;;;;8.70;100.00;101819.53;4900831;29;20024;-95
2023/01/02 15:36:08;;;;;;;4.13;2.80;;;;;;;8.65;100.00;101829.88;4903173;29;20488;-94
2023/01/02 15:38:34;;;;;;;4.13;2.63;;;;;;;8.63;100.00;101825.53;4900758;29;20070;-94
2023/01/02 15:41:19;;;;;;;3.80;2.77;;;;;;;8.60;100.00;101834.16;4900998;29;20124;-95
2023/01/02 15:46:40;;;;;;;5.55;3.30;;;;;;;8.52;100.00;101846.13;4901163;29;20047;-96
2023/01/02 15:49:22;;;;;;;4.60;3.13;;;;;;;8.48;100.00;101845.22;4900681;29;20024;-95
2023/01/02 15:51:47;;;;;;;4.03;2.63;;;;;;;8.46;100.00;101851.22;4900642;29;20080;-94
2023/01/02 15:54:22;;;;;;;2.60;2.40;;;;;;;8.40;100.00;101852.03;4899300;29;20036;-95
2023/01/02 15:56:48;;;;;;;2.22;2.03;;;;;;;8.39;100.00;101860.63;4900233;29;20025;-95
2023/01/02 15:59:28;;;;;;;2.60;2.10;;;;;;;8.34;100.00;101870.94;4900297;29;20100;-95
2023/01/02 16:01:57;;;;;;;3.75;2.40;;;;;;;8.33;100.00;101870.94;4900356;29;20037;-94
2023/01/02 16:04:48;;;;;;;2.30;2.10;;;;;;;8.29;100.00;101875.19;4900302;29;20028;-95
2023/01/02 16:07:21;;;;;;;3.25;2.50;;;;;;;8.30;100.00;101886.41;4899024;29;20033;-91
2023/01/02 16:09:58;;;;;;;3.08;2.20;;;;;;;8.28;100.00;101885.53;4900485;29;20131;-95
2023/01/02 16:12:23;;;;;;;2.38;2.17;;;;;;;8.25;100.00;101885.47;4899722;29;20068;-96
2023/01/02 16:14:54;;;;;;;2.90;2.10;;;;;;;8.27;100.00;101894.13;4937573;23;20058;-96
2023/01/02 16:18:00;;;;;;;2.10;1.92;;;;;;;8.25;100.00;101895.81;4897180;29;20024;-96
2023/01/02 16:27:25;;;;;;;3.90;2.10;;;;;;;8.09;100.00;101921.53;4899791;29;20050;-96
2023/01/02 16:37:22;;;;;;;2.20;2.00;;;;;;;7.95;100.00;101936.84;4899558;29;20120;-95
2023/01/02 16:39:49;;;;;;;3.42;2.22;;;;;;;7.91;100.00;101934.19;4900343;29;20095;-95
2023/01/02 16:45:19;;;;;;;2.67;2.33;;;;;;;7.86;100.00;101939.31;4899703;29;19922;-95
2023/01/02 16:47:47;;;;;;;3.08;2.03;;;;;;;7.87;100.00;101938.47;4899824;29;20020;-95
2023/01/02 16:50:21;;;;;;;3.25;2.10;;;;;;;7.85;100.00;101953.06;4894759;29;20092;-95
2023/01/02 16:52:47;;;;;;;1.80;1.70;;;;;;;7.84;100.00;101953.91;4899363;29;20039;-96
2023/01/02 16:55:21;;;;;;;2.30;2.10;;;;;;;7.85;100.00;101955.66;4898960;29;20097;-96
2023/01/02 16:57:47;;;;;;;2.60;1.80;;;;;;;7.86;100.00;101963.44;4899345;29;20029;-95
2023/01/02 17:00:34;;;;;;;2.00;1.77;;;;;;;7.87;100.00;101964.31;4899292;29;20107;-95
2023/01/02 17:03:37;;;;;;;4.05;2.53;;;;;;;7.85;100.00;101972.06;4899324;29;20029;-95
2023/01/02 17:06:17;;;;;;;4.05;2.90;;;;;;;7.78;100.00;101974.53;4899670;29;20370;-95
2023/01/02 17:08:47;;;;;;;4.70;3.30;;;;;;;7.76;100.00;101976.22;4899425;29;20033;-95
2023/01/02 17:11:23;;;;;;;4.18;3.10;;;;;;;7.73;100.00;101984.78;4899071;29;20029;-96
2023/01/02 17:13:50;;;;;;;5.25;3.20;;;;;;;7.67;100.00;101979.50;4899288;29;20028;-95
2023/01/02 17:16:27;;;;;;;;;;;;;;;7.69;100.00;101988.16;4899463;29;20486;-95
2023/01/02 17:18:52;;;;;;;7.13;3.30;;;;;;;7.67;100.00;101995.03;4899196;29;19915;-95
2023/01/02 17:21:23;;;;;;;6.77;3.30;;;;;;;7.61;100.00;101989.78;4898730;29;20084;-95
2023/01/02 17:24:07;;;;;;;5.00;3.20;;;;;;;7.58;100.00;101998.34;4898837;29;20025;-95
2023/01/02 17:26:50;;;;;;;6.30;3.50;;;;;;;7.53;100.00;101998.28;4899021;29;20100;-96
2023/01/02 17:29:19;;;;;;;4.78;3.10;;;;;;;7.49;100.00;102000.75;4899031;29;20443;-95
2023/01/02 17:31:50;;;;;;;3.50;2.80;;;;;;;7.47;100.00;102005.06;4899003;29;20052;-95
2023/01/02 17:34:27;;;;;;;5.15;3.30;;;;;;;7.46;100.00;102008.47;4898867;29;20043;-96
2023/01/02 17:37:16;;;;;;;4.80;3.30;;;;;;;7.42;100.00;102007.56;4899263;29;20107;-95
2023/01/02 17:39:44;;;;;;;4.03;2.80;;;;;;;7.36;100.00;102007.44;4899095;29;20051;-95
2023/01/02 17:42:16;;;;;;;3.63;2.70;;;;;;;7.37;100.00;102016.94;4973530;23;20048;-94
2023/01/02 17:44:53;;;;;;;3.70;2.70;;;;;;;7.32;100.00;102024.63;4936099;29;20040;-95
2023/01/02 17:47:18;;;;;;;4.13;2.50;;;;;;;7.31;100.00;102034.94;4936611;29;20028;-94
2023/01/02 17:49:50;;;;;;;3.43;2.70;;;;;;;7.30;100.00;102035.78;4934146;23;20543;-95
2023/01/02 17:52:16;;;;;;;3.70;2.55;;;;;;;7.28;100.00;102035.72;4917845;29;20063;-92
2023/01/02 17:57:10;;;;;;;3.28;2.72;;;;;;;7.24;100.00;102050.28;4928290;23;20505;-94
2023/01/02 17:59:51;;;;;;;3.75;2.55;;;;;;;7.28;100.00;102060.69;4921495;29;20024;-95
2023/01/02 18:02:22;;;;;;;3.42;2.90;;;;;;;7.25;100.00;102054.63;4921335;29;20028;-94
2023/01/02 18:04:47;;;;;;;4.40;2.75;;;;;;;7.26;100.00;102066.69;4921066;29;20393;-94
2023/01/02 18:07:22;;;;;;;5.87;3.43;;;;;;;7.26;100.00;102068.41;4946630;23;20119;-94
2023/01/02 18:12:19;;;;;;;4.40;3.17;;;;;;;7.23;100.00;102069.22;4927874;23;20066;-94
2023/01/02 18:14:46;;;;;;;6.80;3.50;;;;;;;7.20;100.00;102071.75;4921468;29;20028;-94
2023/01/02 18:17:31;;;;;;;6.10;3.30;;;;;;;7.21;100.00;102075.19;4920496;29;20032;-94
2023/01/02 18:20:01;;;;;;;6.72;3.55;;;;;;;7.16;100.00;102075.13;4928213;23;20438;-95
2023/01/02 18:22:32;;;;;;;4.95;3.17;;;;;;;7.18;100.00;102090.63;4920844;29;20414;-95
2023/01/02 18:24:57;;;;;;;4.85;3.10;;;;;;;7.13;100.00;102089.69;4920868;29;20167;-95
2023/01/02 18:27:33;;;;;;;5.67;3.20;;;;;;;7.09;100.00;102097.34;4920608;29;20032;-95
2023/01/02 18:30:18;;;;;;;5.32;3.40;;;;;;;7.07;100.00;102108.50;4920944;29;20154;-95
2023/01/02 18:33:27;;;;;;;5.75;3.40;;;;;;;7.03;100.00;102117.91;4920891;29;20028;-95
2023/01/02 18:36:15;;;;;;;5.70;3.40;;;;;;;6.98;100.00;102118.66;4920337;29;20413;-94
2023/01/02 18:38:40;;;;;;;6.15;3.70;;;;;;;6.94;100.00;102126.31;4920353;29;20303;-94
2023/01/02 18:41:23;;;;;;;4.90;3.53;;;;;;;6.91;100.00;102136.56;4920685;29;20140;-94
2023/01/02 18:44:07;;;;;;;7.03;3.90;;;;;;;6.88;100.00;102138.22;4921477;29;20031;-94
2023/01/02 18:46:35;;;;;;;5.45;3.60;;;;;;;6.85;100.00;102140.75;4920824;29;20062;-94
2023/01/02 18:49:27;;;;;;;6.55;3.20;;;;;;;6.85;100.00;102143.31;4930714;29;20044;-94
2023/01/02 18:52:21;;;;;;;5.00;3.28;;;;;;;6.82;100.00;102141.56;4934203;29;20024;-94
2023/01/02 18:55:23;;;;;;;5.35;3.13;;;;;;;6.83;100.00;102157.91;4921212;29;20024;-94
2023/01/02 18:58:12;;;;;;;4.45;3.25;;;;;;;6.73;100.00;102152.53;4919818;29;20497;-95
2023/01/02 19:00:53;;;;;;;5.13;3.35;;;;;;;6.72;100.00;102155.09;4937641;29;20062;-94
2023/01/02 19:03:40;;;;;;;7.28;3.83;;;;;;;6.68;100.00;102164.47;4921055;29;20020;-94
2023/01/02 19:06:26;;;;;;;6.50;3.60;;;;;;;6.66;100.00;102176.47;4918781;29;20028;-93
2023/01/02 19:09:37;;;;;;;7.50;3.90;;;;;;;6.67;100.00;102172.16;4920028;29;20047;-93
2023/01/02 19:18:08;;;;;;;7.22;3.97;;;;;;;6.72;100.00;102193.78;4925867;23;20060;-93
2023/01/02 19:20:34;;;;;;;8.20;4.13;;;;;;;6.71;100.00;102195.50;4920071;29;20044;-94
2023/01/02 19:23:52;;;;;;;8.43;4.17;;;;;;;6.73;100.00;102200.69;4919914;29;20072;-93
2023/01/02 19:26:39;;;;;;;7.03;3.80;;;;;;;6.72;100.00;102202.41;4879977;29;20057;-94
2023/01/02 19:29:10;;;;;;;7.70;4.00;;;;;;;6.68;100.00;102208.34;4880218;29;20041;-94
2023/01/02 19:35:04;;;;;;;6.63;3.60;;;;;;;6.55;100.00;102212.31;4881500;29;20104;-94
2023/01/02 19:38:00;;;;;;;5.72;3.35;;;;;;;6.54;100.00;102214.88;4880447;29;20021;-94
2023/01/02 19:40:37;;;;;;;6.55;3.40;;;;;;;6.47;100.00;102222.47;4898941;23;20041;-94
2023/01/02 19:43:19;;;;;;;6.60;3.60;;;;;;;6.47;100.00;102221.59;4951279;23;20542;-94
2023/01/02 19:46:03;;;;;;;6.07;3.28;;;;;;;6.43;100.00;102227.50;4931088;29;20040;-94
2023/01/02 19:48:29;;;;;;;5.90;3.50;;;;;;;6.37;100.00;102237.69;4900366;29;20020;-93
2023/01/02 19:50:58;;;;;;;6.40;3.70;;;;;;;6.36;100.00;102243.69;4900477;29;20096;-93
2023/01/02 19:53:23;;;;;;;6.57;3.65;;;;;;;6.33;100.00;102244.47;4900252;29;20036;-93